logo
Search for airport 
image banner adimage banner adimage banner ad
image banner ad

LZOC - Ocova

Located in Ocova, Slovakia

ICAO - , IATA -

Data provided by Airmate  

General information

Coordinates: N48°35'43" E19°15'57"
Elevation is 1206 feet MSL.
Magnetic variation is 4.6071° East
View others Airports in Banská Bystrica

Operational data

Special qualification required
Current time UTC:
Current local time:
Weather at : LZSL - Sliac ( 11 km )
TAF: TAF LZSL 131930Z 1321/1406 VRB02KT CAVOK PROB40 TEMPO 1401/1406 1500 BCFG SCT001
View NOTAMs / SUP AIP / TFR affecting this airport [VIEW]
Communications frequencies: [VIEW]

Runways:

RWY identifierQFULength (ft)Width (ft)SurfaceLDA (ft)
08R255982GRASS
26L255982GRASS
08L2034131GRASS
26R2034131GRASS

Airport contact information

Address: Ocova Slovakia

Satellite view of LZOC